Desert Springs, Nevada Weather observations

Data are for 10 minute period ending at time listed.
 Day   Time    Ave.   Ave.  Ave.  Vector   Max.   Total    Solar   
  of    of     Air    Rel.  Wind   Wind    Wind  Precip.   Rad.    
Year   Day     Temp.  Hum.  Speed  Dir.    Gust                    
2015   (PST)    F      %     mph   deg.    mph     in.     W/m2    
------------------------------------------------------------------- 
  26   16:00   59.0    27   10.0   128     18.0    0.00     379  
  26   17:00   54.0    34    4.0    71     12.0    0.00     193  
  26   18:00   49.0    45    4.0    51      8.0    0.00      21  
  26   19:00   48.0    46    6.0    34      9.0    0.00       0  
  26   20:00   50.0    38    4.0   128     10.0    0.00       0  
  26   21:00   46.0    48    3.0   267     10.0    0.00       0  
  26   22:00   46.0    47    2.0   250      5.0    0.00       0  
  26   23:00   48.0    42    2.0    55      4.0    0.00       0  
  27    0:00   45.0    47    6.0   113      9.0    0.00       0  
  27    1:00   44.0    49    3.0   251      5.0    0.00       0  
  27    2:00   45.0    47    5.0   234      5.0    0.00       0  
  27    3:00   46.0    46    6.0   249      8.0    0.00       0  
  27    4:00   45.0    48    2.0   186     10.0    0.00       0  
  27    5:00   46.0    46    6.0   254      8.0    0.00       0  
  27    6:00   45.0    49    8.0   269     12.0    0.00       0  
  27    7:00   46.0    42    6.0   263     13.0    0.00       0  
  27    8:00   44.0    58   16.0   282     23.0    0.00       1  
  27    9:00   41.0    80    4.0   223     25.0    0.02      12  
  27   10:00   42.0    75    7.0   218     11.0    0.02      37  
  27   11:00   42.0    74   10.0   216     14.0    0.02      83  
  27   12:00   44.0    63   18.0   274     24.0    0.02     163  
  27   13:00   46.0    59   19.0   277     25.0    0.02     277  
  27   14:00   46.0    56   19.0   285     25.0    0.02     178  
  27   15:00   47.0    52   16.0   279     26.0    0.02     186  

Return to Desert Springs, Nevada graphs page.


Western Regional Climate Center,wrcc@dri.edu